createdAt,value
2022-08-11T00:00:58.103Z,2.50
2022-08-11T00:03:24.771Z,3.28
2022-08-11T00:06:10.492Z,3.13
2022-08-11T00:08:37.754Z,3.03
2022-08-11T00:11:09.981Z,2.42
2022-08-11T00:13:45.356Z,2.33
2022-08-11T00:16:17.873Z,3.72
2022-08-11T00:18:47.804Z,3.45
2022-08-11T00:21:14.931Z,3.10
2022-08-11T00:23:56.565Z,2.63
2022-08-11T00:26:29.954Z,3.00
2022-08-11T00:29:14.277Z,3.15
2022-08-11T00:32:11.682Z,2.60
2022-08-11T00:34:38.678Z,2.97
2022-08-11T00:37:12.727Z,3.10
2022-08-11T00:39:47.476Z,3.13
2022-08-11T00:42:35.405Z,3.72
2022-08-11T00:45:24.787Z,2.85
2022-08-11T00:48:11.920Z,2.60
2022-08-11T00:50:57.897Z,3.17
2022-08-11T00:53:38.065Z,3.00
2022-08-11T00:56:29.316Z,2.88
2022-08-11T00:59:35.103Z,3.00
2022-08-11T01:02:09.230Z,2.40
2022-08-11T01:05:13.166Z,2.83
2022-08-11T01:08:05.464Z,3.35
2022-08-11T01:10:47.168Z,3.88
2022-08-11T01:13:32.424Z,3.50
2022-08-11T01:16:06.352Z,3.40
2022-08-11T01:18:51.667Z,2.85
2022-08-11T01:22:06.345Z,3.13
2022-08-11T01:24:41.759Z,4.28
2022-08-11T01:27:46.526Z,3.80
2022-08-11T01:30:48.433Z,2.70
2022-08-11T01:33:49.112Z,2.80
2022-08-11T01:36:53.449Z,2.90
2022-08-11T01:39:38.457Z,2.25
2022-08-11T01:42:39.542Z,3.65
2022-08-11T01:45:23.075Z,2.50
2022-08-11T01:48:09.074Z,2.42
2022-08-11T01:51:03.570Z,2.47
2022-08-11T01:54:04.917Z,2.30
2022-08-11T01:56:44.587Z,2.80
2022-08-11T01:59:20.976Z,2.40
2022-08-11T02:02:43.599Z,2.58
2022-08-11T02:05:21.984Z,2.50
2022-08-11T02:08:03.567Z,2.45
2022-08-11T02:10:58.263Z,2.30
2022-08-11T02:13:41.615Z,2.20
2022-08-11T02:19:24.849Z,2.38
2022-08-11T02:22:15.568Z,2.70
2022-08-11T02:24:50.226Z,2.42
2022-08-11T02:27:21.247Z,1.92
2022-08-11T02:30:04.858Z,1.52
2022-08-11T02:33:04.509Z,1.80
2022-08-11T02:35:55.500Z,2.00
2022-08-11T02:38:29.937Z,2.50
2022-08-11T02:41:45.083Z,2.00
2022-08-11T02:44:23.339Z,2.00
2022-08-11T02:47:08.959Z,1.75
2022-08-11T02:50:06.847Z,2.38
2022-08-11T02:52:42.174Z,2.63
2022-08-11T02:55:44.696Z,2.20
2022-08-11T02:58:17.110Z,2.15
2022-08-11T03:00:51.460Z,2.20
2022-08-11T03:03:33.153Z,2.45
2022-08-11T03:06:27.798Z,2.20
2022-08-11T03:09:04.590Z,2.35
2022-08-11T03:12:28.634Z,2.30
2022-08-11T03:15:28.338Z,2.70
2022-08-11T03:18:03.032Z,2.30
2022-08-11T03:20:44.705Z,2.58
2022-08-11T03:23:31.263Z,3.17
2022-08-11T03:26:01.605Z,2.60
2022-08-11T03:29:02.639Z,3.35
2022-08-11T03:31:44.830Z,2.80
2022-08-11T03:34:18.583Z,2.90
2022-08-11T03:37:17.348Z,2.80
2022-08-11T03:40:38.632Z,2.80
2022-08-11T03:43:50.297Z,2.70
2022-08-11T03:46:47.948Z,2.30
2022-08-11T03:49:28.340Z,2.80
2022-08-11T03:52:04.158Z,2.97
2022-08-11T03:54:50.484Z,3.03
2022-08-11T03:57:29.421Z,3.25
2022-08-11T04:00:14.761Z,3.40
2022-08-11T04:03:12.767Z,3.55
2022-08-11T04:06:17.899Z,4.85
2022-08-11T04:09:12.083Z,6.68
2022-08-11T04:11:43.947Z,6.05
2022-08-11T04:14:57.267Z,6.20
2022-08-11T04:17:46.460Z,6.53
2022-08-11T04:20:29.097Z,9.15
2022-08-11T04:23:11.925Z,9.30
2022-08-11T04:26:20.299Z,8.68
2022-08-11T04:28:56.515Z,9.73
2022-08-11T04:31:50.492Z,7.80
2022-08-11T04:34:28.216Z,9.20
2022-08-11T04:37:34.932Z,7.22
2022-08-11T04:40:19.847Z,9.77
2022-08-11T04:43:23.686Z,7.97
2022-08-11T04:46:42.502Z,7.25
2022-08-11T04:50:06.402Z,7.68
2022-08-11T04:53:16.670Z,8.57
2022-08-11T04:56:20.010Z,11.38
2022-08-11T04:59:37.020Z,11.77
2022-08-11T05:02:22.505Z,12.95
2022-08-11T05:05:33.788Z,12.98
2022-08-11T05:08:12.289Z,13.20
2022-08-11T05:11:03.728Z,14.55
2022-08-11T05:14:20.703Z,14.55
2022-08-11T05:17:15.836Z,13.77
2022-08-11T05:20:05.112Z,14.50
2022-08-11T05:22:50.716Z,14.05
2022-08-11T05:26:47.404Z,13.88
2022-08-11T05:28:51.879Z,14.88
2022-08-11T05:31:50.073Z,12.82
2022-08-11T05:34:40.860Z,12.05
2022-08-11T05:37:25.810Z,9.93
2022-08-11T05:40:16.581Z,10.55
2022-08-11T05:43:07.626Z,9.05
2022-08-11T05:46:02.564Z,9.35
2022-08-11T05:48:54.376Z,8.55
2022-08-11T05:51:51.902Z,8.23
2022-08-11T05:54:41.929Z,7.97
2022-08-11T05:57:08.861Z,8.68
2022-08-11T05:59:35.553Z,7.78
2022-08-11T06:02:05.773Z,7.70
2022-08-11T06:04:32.819Z,7.40
2022-08-11T06:07:01.354Z,7.22
2022-08-11T06:09:36.675Z,8.00
2022-08-11T06:12:11.234Z,6.45
2022-08-11T06:14:45.034Z,6.60
2022-08-11T06:17:11.995Z,6.10
2022-08-11T06:19:40.691Z,6.30
2022-08-11T06:22:10.620Z,5.50
2022-08-11T06:24:40.352Z,6.10
2022-08-11T06:27:15.035Z,5.20
2022-08-11T06:29:55.168Z,5.30
2022-08-11T06:32:28.166Z,5.22
2022-08-11T06:35:24.123Z,5.47
2022-08-11T06:38:11.081Z,5.60
2022-08-11T06:41:11.052Z,4.95
2022-08-11T06:43:55.458Z,4.85
2022-08-11T06:46:29.902Z,4.97
2022-08-11T06:48:56.677Z,4.45
2022-08-11T06:51:23.333Z,4.15
2022-08-11T06:54:04.954Z,3.88
2022-08-11T06:57:18.661Z,3.92
2022-08-11T07:00:00.627Z,4.40
2022-08-11T07:02:33.658Z,3.83
2022-08-11T07:05:01.060Z,3.75
2022-08-11T07:08:33.938Z,3.80
2022-08-11T07:11:31.585Z,4.13
2022-08-11T07:14:20.294Z,4.63
2022-08-11T07:16:48.968Z,3.58
2022-08-11T07:19:36.180Z,3.45
2022-08-11T07:22:22.249Z,3.13
2022-08-11T07:25:34.240Z,3.03
2022-08-11T07:28:47.019Z,3.05
2022-08-11T07:31:30.577Z,2.78
2022-08-11T07:34:12.088Z,2.33
2022-08-11T07:36:49.512Z,1.90
2022-08-11T07:39:21.062Z,1.98
2022-08-11T07:41:49.335Z,1.80
2022-08-11T07:44:17.159Z,1.55
2022-08-11T07:47:04.640Z,1.60
2022-08-11T07:49:50.712Z,1.40
2022-08-11T07:52:26.887Z,1.60
2022-08-11T07:54:53.977Z,1.40
2022-08-11T07:58:14.066Z,1.42
2022-08-11T08:00:47.160Z,1.80
2022-08-11T08:03:37.465Z,1.70
2022-08-11T08:06:35.809Z,1.60
2022-08-11T08:09:22.851Z,1.77
2022-08-11T08:12:08.505Z,1.40
2022-08-11T08:14:54.124Z,1.50
2022-08-11T08:17:40.568Z,1.65
2022-08-11T08:20:12.018Z,1.67
2022-08-11T08:22:39.748Z,1.45
2022-08-11T08:25:08.687Z,1.30
2022-08-11T08:27:35.700Z,1.50
2022-08-11T08:30:22.536Z,1.40
2022-08-11T08:32:49.981Z,1.67
2022-08-11T08:35:20.310Z,1.40
2022-08-11T08:37:47.805Z,1.65
2022-08-11T08:40:14.683Z,1.60
2022-08-11T08:42:54.969Z,1.20
2022-08-11T08:45:22.391Z,1.17
2022-08-11T08:47:55.080Z,1.40
2022-08-11T08:50:27.846Z,1.35
2022-08-11T08:53:04.027Z,1.20
2022-08-11T08:55:30.630Z,1.50
2022-08-11T08:58:00.557Z,1.50
2022-08-11T09:00:39.111Z,1.50
2022-08-11T09:03:29.590Z,1.35
2022-08-11T09:05:54.949Z,1.25
2022-08-11T09:08:22.124Z,1.10
2022-08-11T09:11:14.071Z,1.30
2022-08-11T09:13:44.238Z,1.50
2022-08-11T09:16:11.517Z,1.25
2022-08-11T09:18:38.292Z,1.58
2022-08-11T09:21:05.443Z,1.75
2022-08-11T09:24:06.816Z,1.50
2022-08-11T09:26:56.414Z,1.40
2022-08-11T09:29:23.133Z,1.40
2022-08-11T09:31:49.739Z,1.42
2022-08-11T09:34:16.587Z,1.40
2022-08-11T09:37:02.232Z,1.50
2022-08-11T09:39:49.368Z,1.42
2022-08-11T09:42:23.365Z,1.52
2022-08-11T09:44:50.828Z,1.48
2022-08-11T09:47:20.895Z,1.35
2022-08-11T09:49:48.985Z,1.40
2022-08-11T09:52:15.931Z,1.48
2022-08-11T09:54:43.072Z,1.33
2022-08-11T09:57:33.955Z,1.23
2022-08-11T10:00:12.536Z,1.38
2022-08-11T10:02:43.793Z,1.50
2022-08-11T10:05:30.388Z,1.35
2022-08-11T10:07:57.160Z,1.30
2022-08-11T10:10:24.171Z,1.23
2022-08-11T10:12:58.326Z,1.30
2022-08-11T10:15:39.889Z,1.30
2022-08-11T10:18:43.031Z,1.30
2022-08-11T10:21:13.752Z,1.40
2022-08-11T10:24:01.033Z,1.63
2022-08-11T10:26:51.404Z,1.30
2022-08-11T10:29:51.176Z,1.30
2022-08-11T10:32:57.997Z,1.30
2022-08-11T10:35:28.446Z,1.30
2022-08-11T10:38:08.051Z,1.42
2022-08-11T10:40:39.113Z,1.38
2022-08-11T10:43:07.966Z,1.10
2022-08-11T10:45:55.123Z,1.30
2022-08-11T10:48:24.642Z,1.30
2022-08-11T10:51:10.144Z,1.42
2022-08-11T10:53:57.750Z,1.30
2022-08-11T10:56:43.516Z,1.67
2022-08-11T10:59:10.390Z,1.30
2022-08-11T11:01:45.340Z,1.40
2022-08-11T11:04:17.522Z,1.30
2022-08-11T11:07:01.728Z,1.15
2022-08-11T11:09:32.755Z,1.10
2022-08-11T11:12:32.573Z,1.30
2022-08-11T11:15:20.649Z,1.20
2022-08-11T11:17:57.568Z,1.40
2022-08-11T11:20:47.300Z,1.25
2022-08-11T11:23:33.311Z,1.63
2022-08-11T11:26:27.509Z,1.25
2022-08-11T11:29:06.094Z,1.50
2022-08-11T11:31:58.442Z,1.50
2022-08-11T11:34:58.189Z,1.20
2022-08-11T11:37:25.440Z,1.40
2022-08-11T11:39:55.344Z,1.30
2022-08-11T11:42:22.904Z,1.30
2022-08-11T11:44:53.016Z,1.25
2022-08-11T11:47:22.941Z,1.35
2022-08-11T11:49:49.681Z,1.30
2022-08-11T11:52:19.119Z,1.30
2022-08-11T11:54:50.156Z,1.40
2022-08-11T11:57:36.666Z,1.48
2022-08-11T12:00:33.624Z,1.25
2022-08-11T12:03:03.728Z,1.45
2022-08-11T12:05:33.710Z,1.60
2022-08-11T12:08:14.506Z,1.50
2022-08-11T12:11:13.737Z,1.30
2022-08-11T12:13:41.483Z,1.50
2022-08-11T12:16:33.425Z,1.33
2022-08-11T12:18:59.526Z,1.20
2022-08-11T12:21:27.939Z,1.52
2022-08-11T12:24:17.268Z,1.40
2022-08-11T12:27:17.004Z,1.20
2022-08-11T12:29:45.890Z,1.35
2022-08-11T12:32:12.984Z,1.58
2022-08-11T12:34:39.532Z,1.70
2022-08-11T12:37:10.891Z,1.27
2022-08-11T12:40:16.023Z,1.60
2022-08-11T12:43:21.697Z,1.30
2022-08-11T12:45:58.186Z,1.35
2022-08-11T12:49:00.420Z,1.27
2022-08-11T12:52:11.502Z,1.52
2022-08-11T12:54:43.155Z,1.52
2022-08-11T12:57:37.979Z,1.50
2022-08-11T13:00:24.740Z,1.30
2022-08-11T13:03:09.730Z,1.35
2022-08-11T13:05:44.411Z,1.40
2022-08-11T13:08:11.595Z,1.50
2022-08-11T13:10:57.258Z,1.42
2022-08-11T13:13:52.412Z,1.48
2022-08-11T13:16:11.195Z,1.23
2022-08-11T13:18:42.272Z,1.48
2022-08-11T13:21:20.333Z,1.50
2022-08-11T13:24:01.601Z,1.20
2022-08-11T13:26:47.426Z,1.40
2022-08-11T13:29:25.578Z,1.67
2022-08-11T13:31:54.234Z,1.30
2022-08-11T13:34:21.771Z,1.70
2022-08-11T13:36:51.983Z,1.75
2022-08-11T13:39:20.197Z,1.60
2022-08-11T13:41:47.817Z,1.63
2022-08-11T13:44:21.668Z,1.67
2022-08-11T13:46:53.082Z,1.52
2022-08-11T13:49:21.016Z,1.38
2022-08-11T13:51:48.004Z,1.55
2022-08-11T13:54:24.457Z,1.70
2022-08-11T13:56:55.024Z,1.70
2022-08-11T13:59:23.908Z,1.50
2022-08-11T14:02:21.902Z,1.90
2022-08-11T14:04:58.724Z,1.83
2022-08-11T14:07:27.981Z,1.52
2022-08-11T14:09:59.109Z,1.70
2022-08-11T14:12:46.687Z,1.50
2022-08-11T14:15:21.427Z,1.58
2022-08-11T14:18:03.168Z,1.42
2022-08-11T14:20:53.905Z,1.67
2022-08-11T14:23:27.599Z,1.70
2022-08-11T14:26:13.824Z,1.83
2022-08-11T14:28:45.077Z,1.50
2022-08-11T14:31:13.772Z,1.90
2022-08-11T14:33:59.321Z,1.73
2022-08-11T14:36:30.131Z,1.73
2022-08-11T14:38:56.737Z,1.60
2022-08-11T14:42:11.635Z,1.60
2022-08-11T14:44:50.515Z,1.48
2022-08-11T14:47:23.692Z,2.40
2022-08-11T14:49:57.256Z,1.90
2022-08-11T14:52:37.249Z,1.48
2022-08-11T14:55:22.853Z,1.58
2022-08-11T14:57:55.562Z,2.28
2022-08-11T15:00:23.212Z,1.88
2022-08-11T15:03:08.452Z,1.90
2022-08-11T15:05:36.278Z,1.60
2022-08-11T15:08:02.966Z,1.75
2022-08-11T15:10:29.527Z,1.75
2022-08-11T15:12:56.470Z,1.80
2022-08-11T15:15:42.040Z,2.00
2022-08-11T15:18:14.483Z,1.60
2022-08-11T15:20:59.542Z,2.00
2022-08-11T15:23:44.883Z,2.05
2022-08-11T15:26:15.930Z,1.73
2022-08-11T15:29:05.626Z,1.83
2022-08-11T15:31:51.325Z,1.65
2022-08-11T15:34:38.049Z,1.88
2022-08-11T15:37:26.676Z,1.67
2022-08-11T15:40:33.208Z,1.50
2022-08-11T15:43:36.045Z,1.63
2022-08-11T15:46:11.028Z,2.30
2022-08-11T15:48:48.298Z,2.00
2022-08-11T15:51:25.123Z,1.90
2022-08-11T15:53:57.112Z,1.52
2022-08-11T15:56:26.302Z,1.95
2022-08-11T15:59:40.946Z,2.00
2022-08-11T16:02:19.394Z,1.88
2022-08-11T16:04:46.675Z,1.70
2022-08-11T16:07:15.748Z,1.90
2022-08-11T16:09:47.445Z,1.60
2022-08-11T16:15:20.750Z,1.80
2022-08-11T16:17:53.483Z,1.90
2022-08-11T16:20:23.806Z,1.70
2022-08-11T16:22:58.952Z,1.70
2022-08-11T16:27:05.882Z,1.92
2022-08-11T16:28:16.866Z,1.50
2022-08-11T16:30:46.267Z,1.75
2022-08-11T16:33:49.030Z,1.60
2022-08-11T16:36:18.570Z,1.67
2022-08-11T16:38:45.861Z,1.50
2022-08-11T16:41:14.171Z,1.63
2022-08-11T16:44:04.159Z,1.73
2022-08-11T16:46:49.536Z,1.75
2022-08-11T16:49:18.527Z,1.60
2022-08-11T16:51:45.364Z,1.80
2022-08-11T16:54:12.105Z,1.60
2022-08-11T16:56:45.859Z,1.50
2022-08-11T16:59:31.159Z,1.50
2022-08-11T17:02:01.657Z,1.50
2022-08-11T17:04:50.373Z,1.65
2022-08-11T17:07:42.055Z,1.45
2022-08-11T17:10:55.652Z,1.60
2022-08-11T17:13:29.993Z,1.50
2022-08-11T17:16:12.090Z,1.80
2022-08-11T17:19:01.254Z,2.03
2022-08-11T17:21:34.541Z,1.80
2022-08-11T17:26:57.597Z,1.48
2022-08-11T17:29:32.714Z,1.70
2022-08-11T17:32:22.814Z,1.60
2022-08-11T17:35:10.012Z,1.52
2022-08-11T17:37:37.512Z,1.50
2022-08-11T17:40:08.583Z,1.50
2022-08-11T17:42:54.143Z,1.77
2022-08-11T17:45:40.726Z,1.83
2022-08-11T17:48:25.538Z,1.80
2022-08-11T17:51:00.867Z,1.67
2022-08-11T17:54:15.296Z,1.60
2022-08-11T17:56:54.485Z,1.80
2022-08-11T17:59:39.649Z,1.60
2022-08-11T18:02:35.098Z,1.55
2022-08-11T18:05:02.647Z,1.50
2022-08-11T18:07:48.604Z,1.52
2022-08-11T18:10:38.093Z,1.52
2022-08-11T18:13:25.247Z,1.60
2022-08-11T18:16:10.304Z,1.80
2022-08-11T18:18:55.727Z,1.75
2022-08-11T18:21:40.823Z,1.30
2022-08-11T18:24:31.351Z,1.80
2022-08-11T18:27:22.129Z,1.70
2022-08-11T18:30:08.890Z,1.60
2022-08-11T18:33:09.179Z,1.52
2022-08-11T18:36:00.491Z,1.73
2022-08-11T18:38:47.466Z,1.45
2022-08-11T18:41:33.466Z,1.70
2022-08-11T18:44:22.100Z,1.60
2022-08-11T18:47:08.727Z,1.48
2022-08-11T18:50:02.410Z,1.67
2022-08-11T18:52:49.872Z,2.20
2022-08-11T18:55:36.524Z,2.55
2022-08-11T18:58:23.998Z,1.95
2022-08-11T19:01:09.787Z,2.13
2022-08-11T19:03:56.055Z,2.08
2022-08-11T19:06:55.282Z,2.00
2022-08-11T19:09:41.186Z,1.80
2022-08-11T19:12:29.929Z,1.88
2022-08-11T19:15:15.881Z,1.73
2022-08-11T19:18:01.559Z,2.00
2022-08-11T19:20:50.167Z,2.10
2022-08-11T19:23:38.558Z,2.15
2022-08-11T19:26:24.218Z,2.08
2022-08-11T19:30:07.385Z,3.03
2022-08-11T19:32:17.188Z,2.65
2022-08-11T19:35:02.561Z,2.50
2022-08-11T19:37:47.966Z,2.30
2022-08-11T19:40:34.271Z,2.10
2022-08-11T19:43:26.108Z,1.85
2022-08-11T19:46:14.101Z,1.83
2022-08-11T19:49:00.307Z,1.98
2022-08-11T19:51:45.910Z,1.98
2022-08-11T19:54:32.418Z,1.83
2022-08-11T19:57:18.027Z,1.80
2022-08-11T20:00:03.601Z,1.95
2022-08-11T20:02:49.057Z,1.60
2022-08-11T20:05:34.295Z,1.70
2022-08-11T20:08:20.027Z,1.75
2022-08-11T20:11:06.255Z,1.90
2022-08-11T20:13:51.303Z,1.88
2022-08-11T20:16:38.552Z,1.77
2022-08-11T20:19:25.918Z,1.90
2022-08-11T20:22:30.176Z,1.75
2022-08-11T20:25:15.472Z,1.63
2022-08-11T20:28:01.407Z,1.63
2022-08-11T20:30:48.544Z,2.00
2022-08-11T20:33:37.487Z,1.67
2022-08-11T20:36:23.384Z,1.65
2022-08-11T20:39:09.013Z,2.10
2022-08-11T20:41:59.406Z,2.20
2022-08-11T20:44:45.804Z,1.95
2022-08-11T20:47:33.372Z,1.77
2022-08-11T20:50:38.378Z,1.90
2022-08-11T20:53:23.413Z,1.90
2022-08-11T20:56:08.877Z,1.95
2022-08-11T21:02:03.085Z,1.80
2022-08-11T21:04:54.511Z,2.13
2022-08-11T21:07:41.467Z,2.13
2022-08-11T21:10:27.816Z,2.40
2022-08-11T21:13:24.310Z,2.20
2022-08-11T21:16:16.451Z,2.33
2022-08-11T21:19:15.709Z,2.22
2022-08-11T21:22:01.340Z,1.90
2022-08-11T21:24:49.865Z,2.33
2022-08-11T21:27:36.747Z,2.13
2022-08-11T21:30:22.572Z,2.20
2022-08-11T21:33:09.363Z,2.30
2022-08-11T21:35:54.438Z,2.00
2022-08-11T21:38:39.664Z,1.95
2022-08-11T21:41:24.978Z,1.95
2022-08-11T21:44:11.106Z,2.20
2022-08-11T21:46:57.263Z,2.05
2022-08-11T21:49:43.760Z,2.05
2022-08-11T21:52:28.838Z,2.20
2022-08-11T21:55:18.064Z,2.00
2022-08-11T21:58:03.632Z,2.10
2022-08-11T22:00:49.207Z,2.40
2022-08-11T22:03:42.447Z,2.40
2022-08-11T22:06:35.714Z,2.50
2022-08-11T22:09:21.183Z,2.60
2022-08-11T22:12:34.375Z,2.83
2022-08-11T22:15:12.235Z,3.10
2022-08-11T22:17:58.187Z,2.67
2022-08-11T22:20:45.169Z,2.30
2022-08-11T22:23:36.105Z,2.53
2022-08-11T22:26:22.722Z,2.70
2022-08-11T22:29:08.534Z,2.85
2022-08-11T22:31:55.548Z,2.92
2022-08-11T22:34:53.149Z,3.05
2022-08-11T22:37:39.201Z,2.92
2022-08-11T22:40:25.906Z,2.50
2022-08-11T22:43:10.973Z,3.10
2022-08-11T22:45:58.978Z,2.95
2022-08-11T22:48:48.141Z,2.53
2022-08-11T22:51:33.789Z,2.60
2022-08-11T22:54:22.818Z,3.03
2022-08-11T22:57:08.539Z,2.70
2022-08-11T22:59:54.627Z,3.10
2022-08-11T23:02:40.361Z,2.83
2022-08-11T23:05:27.025Z,2.75
2022-08-11T23:08:13.684Z,2.47
2022-08-11T23:10:59.391Z,2.90
2022-08-11T23:13:45.653Z,2.28
2022-08-11T23:16:31.301Z,2.58
2022-08-11T23:20:06.351Z,2.80
2022-08-11T23:22:22.027Z,3.05
2022-08-11T23:25:07.814Z,2.80
2022-08-11T23:27:54.393Z,3.10
2022-08-11T23:30:39.465Z,3.65
2022-08-11T23:33:26.080Z,3.00
2022-08-11T23:36:11.073Z,2.53
2022-08-11T23:39:17.059Z,2.40
2022-08-11T23:42:03.247Z,2.35
2022-08-11T23:44:48.613Z,2.00
2022-08-11T23:47:34.259Z,2.30
2022-08-11T23:50:35.822Z,2.60
2022-08-11T23:53:21.389Z,2.50
2022-08-11T23:56:06.809Z,2.80
2022-08-11T23:58:53.557Z,2.80
